Time;durP1;ratioP1;P1;durP2;ratioP2;P2;SDS_P1;SDS_P2;PMS_P1;PMS_P2;Temp;Humidity;BMP_temperature;BMP_pressure;BME280_temperature;BME280_humidity;BME280_pressure;Samples;Min_cycle;Max_cycle;Signal;HPM_P1;HPM_P2
2021/11/02 00:01:37;;;;;;;8.32;4.65;;;;;;;7.11;90.61;99959.94;4847512;29;20049;-85
2021/11/02 00:04:02;;;;;;;7.13;4.57;;;;;;;7.13;90.90;99962.50;4864227;29;20038;-85
2021/11/02 00:06:27;;;;;;;5.00;4.50;;;;;;;7.12;90.91;99960.78;4858860;29;20367;-84
2021/11/02 00:08:53;;;;;;;5.78;4.72;;;;;;;7.15;90.95;99958.06;4857484;29;20413;-85
2021/11/02 00:11:18;;;;;;;9.13;5.10;;;;;;;7.12;90.89;99960.78;4834830;29;20052;-85
2021/11/02 00:13:46;;;;;;;5.22;4.75;;;;;;;7.09;91.08;99956.56;4849853;29;20042;-85
2021/11/02 00:16:14;;;;;;;9.88;5.10;;;;;;;7.10;91.00;99963.44;4831573;29;20033;-85
2021/11/02 00:18:45;;;;;;;6.97;5.47;;;;;;;7.07;91.06;99958.34;4832028;29;20120;-86
2021/11/02 00:21:11;;;;;;;10.02;5.30;;;;;;;7.07;91.12;99962.72;4862674;29;20229;-85
2021/11/02 00:23:38;;;;;;;6.25;5.07;;;;;;;7.07;91.43;99953.13;4832737;29;20026;-85
2021/11/02 00:26:04;;;;;;;5.00;4.57;;;;;;;7.08;91.21;99956.63;4864590;29;20056;-85
2021/11/02 00:28:29;;;;;;;5.75;5.15;;;;;;;7.07;91.55;99952.31;4854168;29;20157;-85
2021/11/02 00:30:55;;;;;;;5.88;5.07;;;;;;;7.07;91.36;99963.56;4833733;29;20060;-86
2021/11/02 00:33:20;;;;;;;9.48;5.53;;;;;;;7.06;91.47;99948.84;4833368;29;20045;-85
2021/11/02 00:35:46;;;;;;;5.10;4.47;;;;;;;7.06;91.27;99951.47;4865432;29;20049;-85
2021/11/02 00:38:11;;;;;;;6.53;4.93;;;;;;;7.07;91.52;99947.94;4848832;29;20065;-85
2021/11/02 00:40:37;;;;;;;6.25;5.25;;;;;;;7.09;91.47;99951.34;4865159;29;20067;-85
2021/11/02 00:43:04;;;;;;;8.98;5.15;;;;;;;7.11;91.52;99948.66;4865442;29;20041;-85
2021/11/02 00:45:34;;;;;;;9.73;6.00;;;;;;;7.11;91.37;99949.53;4848207;29;20048;-85
2021/11/02 00:48:01;;;;;;;10.13;5.38;;;;;;;7.09;91.58;99946.13;4835371;29;20245;-85
2021/11/02 00:50:27;;;;;;;7.93;4.90;;;;;;;7.13;91.50;99938.19;4836511;29;20033;-85
2021/11/02 00:52:53;;;;;;;7.07;4.78;;;;;;;7.13;91.38;99948.59;4834034;29;20044;-85
2021/11/02 00:55:18;;;;;;;10.82;5.60;;;;;;;7.15;91.31;99944.16;4853565;29;20057;-85
2021/11/02 00:57:44;;;;;;;7.10;5.00;;;;;;;7.15;91.78;99950.25;4865600;29;20049;-85
2021/11/02 01:00:10;;;;;;;8.38;5.60;;;;;;;7.16;91.76;99948.47;4848153;29;20069;-85
2021/11/02 01:02:36;;;;;;;5.93;5.32;;;;;;;7.15;91.59;99946.78;4848294;29;20065;-85
2021/11/02 01:05:01;;;;;;;10.43;6.10;;;;;;;7.15;91.64;99949.38;4838299;29;20038;-85
2021/11/02 01:07:27;;;;;;;8.43;5.53;;;;;;;7.15;91.58;99951.97;4854557;29;20113;-85
2021/11/02 01:09:52;;;;;;;7.70;5.50;;;;;;;7.14;91.50;99945.09;4862759;29;20041;-85
2021/11/02 01:12:18;;;;;;;7.18;5.43;;;;;;;7.14;91.55;99943.34;4847381;29;20044;-86
2021/11/02 01:14:43;;;;;;;9.15;5.63;;;;;;;7.14;91.65;99940.72;4832148;29;20045;-85
2021/11/02 01:17:09;;;;;;;8.38;5.32;;;;;;;7.14;91.65;99945.94;4848743;29;20353;-85
2021/11/02 01:19:34;;;;;;;8.30;5.28;;;;;;;7.14;91.87;99939.91;4832874;29;20074;-85
2021/11/02 01:22:00;;;;;;;8.25;5.22;;;;;;;7.16;91.75;99941.50;4834890;29;20036;-85
2021/11/02 01:24:25;;;;;;;7.05;5.20;;;;;;;7.16;91.78;99943.28;4847698;29;20057;-85
2021/11/02 01:26:51;;;;;;;8.45;5.82;;;;;;;7.16;91.83;99945.88;4849132;29;20040;-85
2021/11/02 01:29:16;;;;;;;9.70;5.85;;;;;;;7.17;91.88;99943.22;4847718;29;20029;-85
2021/11/02 01:31:45;;;;;;;9.18;5.95;;;;;;;7.17;91.76;99952.75;4848311;29;20038;-85
2021/11/02 01:34:11;;;;;;;6.25;4.93;;;;;;;7.19;91.82;99940.56;4832983;29;20137;-85
2021/11/02 01:36:37;;;;;;;9.43;5.47;;;;;;;7.20;91.78;99937.03;4817816;29;20045;-85
2021/11/02 01:39:03;;;;;;;11.90;5.40;;;;;;;7.20;91.89;99942.22;4833099;29;20049;-85
2021/11/02 01:41:29;;;;;;;14.25;5.50;;;;;;;7.20;91.73;99940.47;4830974;29;20241;-85
2021/11/02 01:43:57;;;;;;;6.18;5.30;;;;;;;7.21;91.83;99936.97;4849501;29;20026;-85
2021/11/02 01:46:27;;;;;;;7.70;5.97;;;;;;;7.20;92.04;99937.88;4836482;29;20060;-85
2021/11/02 01:48:53;;;;;;;6.25;5.43;;;;;;;7.21;91.72;99939.56;4852695;29;20342;-85
2021/11/02 01:51:20;;;;;;;9.32;5.45;;;;;;;7.23;91.89;99939.50;4867569;29;20048;-85
2021/11/02 01:53:46;;;;;;;7.70;5.68;;;;;;;7.23;91.82;99936.91;4867534;29;20037;-85
2021/11/02 01:56:12;;;;;;;8.80;6.40;;;;;;;7.21;91.66;99929.16;4851735;29;20044;-85
2021/11/02 01:58:39;;;;;;;6.78;6.00;;;;;;;7.20;92.10;99932.66;4850131;29;20093;-85
2021/11/02 02:04:38;;;;;;;8.00;5.53;;;;;;;7.20;92.06;99939.63;4845145;29;20340;-84
2021/11/02 02:07:28;;;;;;;7.05;6.35;;;;;;;7.19;91.95;99936.19;4868133;29;20045;-84
2021/11/02 02:10:07;;;;;;;9.20;6.50;;;;;;;7.18;91.92;99926.66;4850928;29;20047;-84
2021/11/02 02:12:43;;;;;;;10.20;6.70;;;;;;;7.18;91.92;99936.25;4851066;29;20317;-84
2021/11/02 02:15:28;;;;;;;7.00;6.30;;;;;;;7.17;91.99;99937.13;4848253;29;20085;-84
2021/11/02 02:17:57;;;;;;;6.55;5.78;;;;;;;7.17;92.03;99930.19;4848862;29;20047;-84
2021/11/02 02:20:46;;;;;;;7.13;6.25;;;;;;;7.17;92.30;99930.19;4867173;29;20426;-83
2021/11/02 02:23:38;;;;;;;9.93;6.43;;;;;;;7.16;92.30;99930.25;4851551;29;20101;-84
2021/11/02 02:26:20;;;;;;;15.18;6.93;;;;;;;7.16;92.20;99931.09;4867612;29;20379;-84
2021/11/02 02:28:46;;;;;;;8.32;6.28;;;;;;;7.16;92.24;99922.44;4828478;29;20040;-84
2021/11/02 02:31:12;;;;;;;8.10;6.55;;;;;;;7.16;92.31;99930.25;4850988;29;20021;-84
2021/11/02 02:33:45;;;;;;;11.23;6.50;;;;;;;7.17;92.20;99926.72;4835487;29;20087;-84
2021/11/02 02:36:11;;;;;;;9.65;6.15;;;;;;;7.15;92.38;99921.59;4829522;29;20045;-84
2021/11/02 02:38:39;;;;;;;9.05;5.97;;;;;;;7.14;92.31;99916.47;4828089;29;20041;-84
2021/11/02 02:41:04;;;;;;;9.30;6.10;;;;;;;7.11;92.09;99922.63;4836704;29;20089;-84
2021/11/02 02:43:30;;;;;;;10.45;5.68;;;;;;;7.09;92.11;99917.50;4862917;29;20037;-84
2021/11/02 02:45:57;;;;;;;11.13;5.97;;;;;;;7.07;92.11;99914.09;4831902;29;20273;-84
2021/11/02 02:48:23;;;;;;;7.65;5.70;;;;;;;7.07;92.39;99908.03;4832188;29;20038;-84
2021/11/02 02:50:48;;;;;;;9.32;6.13;;;;;;;7.05;92.23;99902.88;4833185;29;20065;-84
2021/11/02 02:53:14;;;;;;;9.35;6.30;;;;;;;7.05;92.57;99897.69;4820262;29;20037;-84
2021/11/02 02:55:41;;;;;;;6.68;6.07;;;;;;;7.05;92.44;99895.09;4835459;29;20026;-84
2021/11/02 02:58:06;;;;;;;6.13;5.55;;;;;;;7.06;92.55;99893.34;4832729;29;20060;-84
2021/11/02 03:00:32;;;;;;;10.40;6.25;;;;;;;7.05;92.45;99895.09;4849157;29;20288;-83
2021/11/02 03:02:57;;;;;;;12.65;5.88;;;;;;;7.04;92.38;99893.41;4821442;29;20029;-84
2021/11/02 03:05:24;;;;;;;10.90;6.03;;;;;;;7.03;92.31;99894.31;4850063;29;20065;-83
2021/11/02 03:07:49;;;;;;;7.60;5.75;;;;;;;7.02;92.37;99887.41;4848219;29;20373;-84
2021/11/02 03:10:15;;;;;;;6.93;6.05;;;;;;;7.01;92.57;99888.31;4851062;29;20034;-84
2021/11/02 03:12:43;;;;;;;8.10;6.32;;;;;;;6.99;92.68;99890.13;4850585;29;20048;-84
2021/11/02 03:15:38;;;;;;;8.30;5.72;;;;;;;7.01;92.74;99887.47;4850319;29;20296;-82
2021/11/02 03:43:44;;;;;;;7.07;5.43;;;;;;;6.99;92.67;99903.16;4839392;29;20057;-84
2021/11/02 04:45:58;;;;;;;5.60;4.78;;;;;;;6.72;92.66;99938.94;4865522;29;20301;-84
2021/11/02 05:48:01;;;;;;;19.92;8.98;;;;;;;6.61;93.31;99938.50;4836286;29;20061;-84
2021/11/02 05:58:29;;;;;;;19.95;9.65;;;;;;;6.66;93.50;99947.00;4868716;29;20076;-84
2021/11/02 06:09:15;;;;;;;16.90;8.90;;;;;;;6.72;93.71;99955.38;4835848;29;20101;-85
2021/11/02 06:28:50;;;;;;;18.30;9.60;;;;;;;6.85;93.76;99955.75;4855505;29;20446;-84
2021/11/02 06:31:28;;;;;;;19.80;9.35;;;;;;;6.85;93.50;99958.34;4851532;29;20090;-85
2021/11/02 06:39:22;;;;;;;;;;;;;;;;;;;;;
2021/11/02 06:52:24;;;;;;;16.95;9.48;;;;;;;6.95;93.88;99961.47;4835221;29;20112;-84
2021/11/02 06:58:01;;;;;;;20.90;9.63;;;;;;;6.98;93.76;99963.94;4832279;29;20052;-84
2021/11/02 07:19:36;;;;;;;19.17;9.65;;;;;;;7.05;93.94;99965.38;4847037;29;20053;-86
2021/11/02 07:25:20;;;;;;;21.58;10.20;;;;;;;7.11;94.09;99967.75;4824252;29;20065;-85
2021/11/02 08:45:20;;;;;;;29.13;17.35;;;;;;;7.66;94.08;99971.59;4837304;29;20048;-85
2021/11/02 08:47:47;;;;;;;29.20;17.08;;;;;;;7.67;94.21;99981.94;4850833;29;20097;-85
2021/11/02 08:50:13;;;;;;;25.45;16.75;;;;;;;7.67;94.08;99981.94;4830472;29;20258;-84
2021/11/02 08:52:39;;;;;;;31.35;16.65;;;;;;;7.69;94.13;99977.53;4835802;29;20101;-84
2021/11/02 08:55:06;;;;;;;28.75;17.65;;;;;;;7.70;94.32;99978.38;4868684;29;20041;-85
2021/11/02 08:57:32;;;;;;;27.25;17.30;;;;;;;7.72;94.01;99978.31;4848622;29;20140;-85
2021/11/02 08:59:57;;;;;;;28.13;17.33;;;;;;;7.73;94.24;99977.38;4829166;29;20037;-85
2021/11/02 09:02:29;;;;;;;31.70;18.30;;;;;;;7.75;94.28;99980.75;4847981;29;20093;-85
2021/11/02 09:05:00;;;;;;;32.13;18.35;;;;;;;7.75;94.46;99981.63;4853510;29;20419;-85
2021/11/02 09:07:26;;;;;;;27.80;17.83;;;;;;;7.78;94.34;99991.91;4825769;29;20046;-85
2021/11/02 09:09:51;;;;;;;28.10;17.95;;;;;;;7.79;94.27;99982.34;4843862;29;20419;-85
2021/11/02 09:12:17;;;;;;;26.98;18.85;;;;;;;7.79;94.31;99983.19;4817375;29;20054;-85
2021/11/02 09:14:43;;;;;;;29.83;18.40;;;;;;;7.79;94.14;99982.34;4845013;29;20125;-85
2021/11/02 09:17:08;;;;;;;30.42;18.80;;;;;;;7.79;94.06;99991.00;4851188;29;20037;-85
2021/11/02 09:19:35;;;;;;;29.35;18.35;;;;;;;7.79;94.06;99990.16;4864179;29;20038;-85
2021/11/02 09:22:02;;;;;;;33.78;19.13;;;;;;;7.78;94.10;99985.84;4832820;29;20048;-85
2021/11/02 09:24:27;;;;;;;29.05;18.35;;;;;;;7.77;94.10;99995.44;4846886;29;20038;-86
2021/11/02 09:26:52;;;;;;;36.53;20.00;;;;;;;7.79;94.06;99995.38;4869728;29;20029;-85
2021/11/02 09:29:19;;;;;;;30.27;19.75;;;;;;;7.79;94.18;99993.59;4843090;29;20101;-85
2021/11/02 09:31:44;;;;;;;32.15;20.17;;;;;;;7.80;94.05;99989.22;4848508;29;20040;-85
2021/11/02 09:34:11;;;;;;;33.13;20.30;;;;;;;7.81;94.21;99996.16;4827240;29;20038;-84
2021/11/02 09:36:44;;;;;;;37.65;20.20;;;;;;;7.82;93.98;99992.63;4843341;29;20060;-85
2021/11/02 09:39:10;;;;;;;31.92;19.80;;;;;;;7.83;94.08;99999.53;4848980;29;20060;-85
2021/11/02 09:42:11;;;;;;;31.88;21.10;;;;;;;7.83;94.07;99992.56;4839200;29;20081;-84
2021/11/02 09:45:02;;;;;;;30.85;19.33;;;;;;;7.84;94.08;99977.75;4838680;29;20045;-85
2021/11/02 09:48:08;;;;;;;31.35;19.85;;;;;;;7.86;94.06;99989.00;4843778;29;20029;-85
2021/11/02 09:50:58;;;;;;;26.75;19.45;;;;;;;7.86;94.19;99987.22;4844346;29;20060;-85
2021/11/02 09:53:46;;;;;;;31.80;20.25;;;;;;;7.90;94.30;99990.53;4849694;29;20559;-85
2021/11/02 09:56:17;;;;;;;;;;;;;;;7.89;94.17;99975.81;4862997;29;20065;-85
2021/11/02 09:59:00;;;;;;;30.88;19.42;;;;;;;7.90;94.17;99982.72;4843693;29;19920;-85
2021/11/02 10:01:32;;;;;;;28.17;19.33;;;;;;;7.93;94.19;99984.34;4844394;29;20037;-85
2021/11/02 10:04:25;;;;;;;29.02;19.85;;;;;;;7.94;94.47;99981.66;4842307;29;20029;-85
2021/11/02 10:07:22;;;;;;;28.65;19.02;;;;;;;7.94;94.47;99981.66;4859430;29;20370;-85
2021/11/02 10:10:21;;;;;;;26.10;19.10;;;;;;;7.97;94.52;99985.91;4855138;29;20232;-85
2021/11/02 10:12:53;;;;;;;32.10;19.90;;;;;;;7.98;94.26;99975.41;4832313;29;20376;-85
2021/11/02 10:16:01;;;;;;;28.27;19.33;;;;;;;7.99;94.21;99978.88;4861760;29;20042;-84
2021/11/02 10:18:43;;;;;;;;;;;;;;;7.99;94.34;99986.69;4848365;29;20045;-85
2021/11/02 10:21:24;;;;;;;33.35;19.23;;;;;;;8.00;94.50;99981.38;4851370;29;19998;-85
2021/11/02 10:24:22;;;;;;;26.60;18.10;;;;;;;8.00;94.61;99984.00;4837745;29;20510;-85
2021/11/02 10:27:09;;;;;;;26.25;18.83;;;;;;;8.02;94.62;99981.31;4850680;29;20064;-85
2021/11/02 10:29:51;;;;;;;25.55;17.88;;;;;;;8.03;94.63;99983.03;4868526;29;20059;-84
2021/11/02 10:32:16;;;;;;;24.40;18.27;;;;;;;8.04;94.91;99976.88;4852910;29;20093;-85
2021/11/02 10:34:42;;;;;;;24.92;17.20;;;;;;;8.06;94.70;99988.13;4848501;29;20371;-85
2021/11/02 10:37:16;;;;;;;27.40;18.80;;;;;;;8.04;94.83;99977.75;4866725;29;20034;-84
2021/11/02 10:40:19;;;;;;;28.30;18.25;;;;;;;8.05;94.82;99983.81;4867742;29;20306;-84
2021/11/02 10:43:16;;;;;;;26.40;17.50;;;;;;;8.05;94.86;99983.81;4870456;29;20022;-84
2021/11/02 10:45:52;;;;;;;23.30;17.33;;;;;;;8.06;94.79;99980.31;4864815;29;20049;-84
2021/11/02 10:48:21;;;;;;;23.20;16.80;;;;;;;8.05;94.91;99982.03;4837218;29;20412;-84
2021/11/02 10:50:48;;;;;;;22.40;16.02;;;;;;;8.05;95.03;99982.03;4839519;29;20060;-84
2021/11/02 10:53:29;;;;;;;22.67;16.55;;;;;;;8.08;95.08;99981.06;4835705;29;20037;-84
2021/11/02 10:56:16;;;;;;;24.67;17.10;;;;;;;8.08;95.32;99978.47;4849394;29;20041;-84
2021/11/02 10:58:48;;;;;;;26.88;17.63;;;;;;;8.09;95.31;99980.16;4843971;29;20353;-84
2021/11/02 11:01:13;;;;;;;27.98;18.05;;;;;;;8.09;95.56;99980.16;4847593;29;20090;-84
2021/11/02 11:03:40;;;;;;;32.40;17.23;;;;;;;8.11;95.54;99982.69;4850364;29;20079;-84
2021/11/02 11:06:07;;;;;;;23.58;16.58;;;;;;;8.13;95.84;99975.63;4833833;29;20033;-84
2021/11/02 11:08:35;;;;;;;24.98;17.02;;;;;;;8.13;95.91;99976.50;4846759;29;20064;-84
2021/11/02 11:11:04;;;;;;;22.60;14.63;;;;;;;8.13;95.93;99973.03;4856345;29;20029;-84
2021/11/02 11:13:30;;;;;;;19.52;14.65;;;;;;;8.13;95.92;99979.13;4824982;29;20333;-84
2021/11/02 11:16:05;;;;;;;17.85;13.60;;;;;;;8.15;95.50;99982.50;4865779;29;20108;-84
2021/11/02 11:18:36;;;;;;;17.83;13.68;;;;;;;8.17;95.76;99980.66;4838538;29;20595;-84
2021/11/02 11:21:02;;;;;;;19.70;14.05;;;;;;;8.22;95.73;99973.50;4833602;29;20371;-84
2021/11/02 11:23:27;;;;;;;20.98;14.60;;;;;;;8.27;96.01;99970.66;4832464;29;20045;-84
2021/11/02 11:26:05;;;;;;;17.48;13.90;;;;;;;8.33;95.95;99974.75;4833131;29;20044;-84
2021/11/02 11:28:36;;;;;;;14.73;12.63;;;;;;;8.38;96.23;99970.19;4830005;29;20093;-84
2021/11/02 11:31:01;;;;;;;13.57;12.05;;;;;;;8.42;95.97;99964.78;4844579;29;20060;-84
2021/11/02 11:33:28;;;;;;;16.90;13.10;;;;;;;8.46;96.01;99973.34;4864297;29;20233;-84
2021/11/02 11:35:53;;;;;;;18.77;12.73;;;;;;;8.52;95.92;99978.25;4819010;29;20045;-84
2021/11/02 11:38:19;;;;;;;16.25;13.40;;;;;;;8.57;95.90;99973.69;4842517;29;20045;-84
2021/11/02 11:40:44;;;;;;;12.85;10.77;;;;;;;8.61;95.90;99970.00;4850874;29;20041;-84
2021/11/02 11:43:11;;;;;;;11.55;10.13;;;;;;;8.63;95.84;99973.38;4833117;29;20048;-84
2021/11/02 11:45:39;;;;;;;12.15;10.73;;;;;;;8.65;95.82;99968.94;4831889;29;20063;-84
2021/11/02 11:48:12;;;;;;;10.77;9.67;;;;;;;8.67;95.49;99968.88;4831736;29;20049;-84
2021/11/02 11:50:39;;;;;;;9.98;8.98;;;;;;;8.65;94.87;99968.09;4832134;29;20105;-84
2021/11/02 11:53:05;;;;;;;11.13;9.23;;;;;;;8.66;94.30;99959.38;4851737;29;20072;-84
2021/11/02 11:55:39;;;;;;;9.30;8.25;;;;;;;8.67;94.51;99966.25;4837928;29;20341;-84
2021/11/02 11:58:15;;;;;;;9.15;7.70;;;;;;;8.65;94.16;99968.94;4839955;29;20049;-84
2021/11/02 12:00:49;;;;;;;7.93;7.20;;;;;;;8.64;94.02;99963.78;4845298;29;20044;-84
2021/11/02 12:03:42;;;;;;;10.38;6.57;;;;;;;8.60;93.81;99962.25;4826802;29;20053;-84
2021/11/02 12:06:39;;;;;;;8.70;6.20;;;;;;;8.55;93.77;99964.22;4847179;29;20097;-85
2021/11/02 12:09:05;;;;;;;7.30;5.93;;;;;;;8.49;93.33;99965.34;4846992;29;20101;-84
2021/11/02 12:11:32;;;;;;;7.03;6.47;;;;;;;8.44;93.42;99964.69;4860548;29;20041;-84
2021/11/02 12:14:09;;;;;;;7.32;6.60;;;;;;;8.40;93.42;99965.72;4842925;29;20309;-84
2021/11/02 12:16:39;;;;;;;7.40;5.50;;;;;;;8.34;93.53;99961.66;4827059;29;20048;-84
2021/11/02 12:19:08;;;;;;;3.95;3.65;;;;;;;8.30;93.59;99969.69;4845979;29;20053;-84
2021/11/02 12:21:35;;;;;;;7.70;2.60;;;;;;;8.24;93.80;99968.19;4852427;29;20091;-84
2021/11/02 12:24:09;;;;;;;1.70;1.60;;;;;;;8.19;93.54;99965.78;4830120;29;20109;-84
2021/11/02 12:26:38;;;;;;;1.80;1.40;;;;;;;8.14;93.76;99965.16;4862514;29;20061;-84
2021/11/02 12:29:07;;;;;;;3.80;1.10;;;;;;;8.11;93.80;99967.03;4864328;29;20041;-84
2021/11/02 12:31:32;;;;;;;1.35;1.25;;;;;;;8.06;94.03;99968.09;4831767;29;20033;-85
2021/11/02 12:33:59;;;;;;;2.00;1.15;;;;;;;8.05;94.26;99962.94;4832097;29;20225;-85
2021/11/02 12:36:25;;;;;;;1.95;1.27;;;;;;;8.05;94.22;99971.59;4849103;29;20029;-84
2021/11/02 12:39:05;;;;;;;1.23;1.10;;;;;;;8.04;94.37;99963.84;4845682;29;20116;-84
2021/11/02 12:41:30;;;;;;;2.78;1.40;;;;;;;8.06;94.59;99955.06;4844674;29;20045;-84
2021/11/02 12:44:08;;;;;;;1.92;1.30;;;;;;;8.11;94.60;99959.22;4856558;29;20048;-84
2021/11/02 12:46:34;;;;;;;2.05;1.88;;;;;;;8.14;94.79;99957.31;4840401;29;20037;-84
2021/11/02 12:49:03;;;;;;;2.60;1.65;;;;;;;8.18;94.91;99969.31;4860650;29;20082;-84
2021/11/02 12:51:36;;;;;;;2.15;1.25;;;;;;;8.21;94.99;99969.19;4832088;29;20099;-84
2021/11/02 12:54:03;;;;;;;4.68;1.40;;;;;;;8.24;95.08;99970.78;4836799;29;20085;-84
2021/11/02 12:56:29;;;;;;;2.75;1.83;;;;;;;8.25;95.20;99967.28;4846504;29;20228;-84
2021/11/02 12:59:01;;;;;;;6.45;1.45;;;;;;;8.29;94.95;99968.81;4840757;29;20034;-84
2021/11/02 13:01:35;;;;;;;1.52;1.27;;;;;;;8.31;95.08;99967.00;4824983;29;20044;-84
2021/11/02 13:04:10;;;;;;;1.50;1.10;;;;;;;8.33;95.15;99969.53;4844755;29;20050;-84
2021/11/02 13:06:46;;;;;;;1.95;0.73;;;;;;;8.32;94.98;99973.06;4839421;29;20037;-85
2021/11/02 13:09:17;;;;;;;0.75;0.60;;;;;;;8.29;94.70;99975.81;4857081;29;20081;-84
2021/11/02 13:11:44;;;;;;;2.13;0.73;;;;;;;8.29;94.57;99975.81;4841497;29;20147;-84
2021/11/02 13:14:12;;;;;;;1.33;0.50;;;;;;;8.27;94.13;99978.50;4847122;29;20447;-84
2021/11/02 13:16:52;;;;;;;0.95;0.50;;;;;;;8.26;93.99;99972.44;4848605;29;20052;-84
2021/11/02 13:19:18;;;;;;;0.47;0.40;;;;;;;8.26;93.55;99976.81;4857323;29;20041;-85
2021/11/02 13:21:45;;;;;;;1.10;0.47;;;;;;;8.26;93.32;99975.03;4827236;29;20859;-84
2021/11/02 13:24:16;;;;;;;0.38;0.35;;;;;;;8.24;92.99;99982.09;4854564;29;20041;-84
2021/11/02 13:26:43;;;;;;;0.20;0.20;;;;;;;8.22;92.85;99973.50;4842001;29;20353;-85
2021/11/02 13:29:13;;;;;;;0.68;0.30;;;;;;;8.21;92.68;99974.41;4828911;29;20041;-85
2021/11/02 13:31:39;;;;;;;3.80;0.40;;;;;;;8.23;92.37;99977.78;4832168;29;20445;-84
2021/11/02 13:34:09;;;;;;;0.65;0.30;;;;;;;8.29;92.26;99986.25;4831855;29;20351;-84
2021/11/02 13:36:34;;;;;;;1.27;0.20;;;;;;;8.33;92.08;99987.78;4831680;29;20049;-84
2021/11/02 13:39:07;;;;;;;2.38;0.30;;;;;;;8.35;91.83;100001.63;4867274;29;20041;-84
2021/11/02 13:41:37;;;;;;;1.48;0.30;;;;;;;8.33;91.78;99999.09;4847477;29;20214;-84
2021/11/02 13:44:07;;;;;;;1.05;0.40;;;;;;;8.33;91.58;100000.84;4828994;29;20022;-85
2021/11/02 13:46:38;;;;;;;2.53;0.40;;;;;;;8.33;91.51;99999.09;4831253;29;20049;-85
2021/11/02 13:49:05;;;;;;;0.22;0.20;;;;;;;8.31;91.36;100000.06;4820911;29;20538;-85
2021/11/02 13:51:30;;;;;;;1.15;0.30;;;;;;;8.30;90.96;99996.63;4849043;29;20389;-85
2021/11/02 13:53:56;;;;;;;0.40;0.25;;;;;;;8.30;90.68;99996.63;4849399;29;20451;-84
2021/11/02 13:56:27;;;;;;;1.38;0.30;;;;;;;8.32;90.92;100007.00;4868965;29;20052;-84
2021/11/02 13:58:53;;;;;;;4.43;0.20;;;;;;;8.33;91.37;100006.06;4839985;29;20384;-85
2021/11/02 14:01:45;;;;;;;0.75;0.47;;;;;;;8.34;91.62;100007.75;4849577;29;20186;-84
2021/11/02 14:04:16;;;;;;;0.93;0.50;;;;;;;8.35;91.83;100001.63;4847404;29;20086;-84
2021/11/02 14:06:47;;;;;;;1.85;0.45;;;;;;;8.32;91.13;100009.59;4842712;29;20929;-84
2021/11/02 14:09:26;;;;;;;1.42;0.40;;;;;;;8.31;90.77;100003.50;4830771;29;20352;-84
2021/11/02 14:11:52;;;;;;;0.47;0.30;;;;;;;8.31;90.82;100002.69;4847582;29;20049;-84
2021/11/02 14:14:31;;;;;;;0.85;0.47;;;;;;;8.29;90.64;100009.72;4845699;29;20622;-85
2021/11/02 14:16:57;;;;;;;2.92;0.30;;;;;;;8.30;90.81;100011.44;4845371;29;20049;-84
2021/11/02 14:19:37;;;;;;;0.32;0.30;;;;;;;8.26;90.31;100008.13;4846036;29;20314;-84
2021/11/02 14:22:03;;;;;;;0.70;0.40;;;;;;;8.25;90.21;100016.84;4864025;29;20056;-84
2021/11/02 14:24:30;;;;;;;0.80;0.40;;;;;;;8.25;90.53;100017.69;4832944;29;20037;-84
2021/11/02 14:26:56;;;;;;;0.57;0.50;;;;;;;8.25;90.93;100015.06;4854788;29;20049;-85
2021/11/02 14:30:06;;;;;;;3.20;0.75;;;;;;;8.23;91.07;100016.91;4828756;29;20033;-84
2021/11/02 14:32:35;;;;;;;1.25;0.60;;;;;;;8.22;91.10;100015.22;4834885;29;20064;-84
2021/11/02 14:35:00;;;;;;;1.20;0.60;;;;;;;8.21;91.29;100016.13;4861100;29;20069;-84
2021/11/02 14:37:27;;;;;;;3.47;0.60;;;;;;;8.22;91.37;100023.06;4845280;29;20037;-85
2021/11/02 14:39:56;;;;;;;1.58;0.70;;;;;;;8.23;91.41;100019.50;4828266;29;20034;-84
2021/11/02 14:42:43;;;;;;;2.97;0.50;;;;;;;8.23;91.57;100018.66;4844162;29;20273;-84
2021/11/02 14:45:09;;;;;;;4.95;0.82;;;;;;;8.25;91.66;100030.72;4842633;29;20053;-85
2021/11/02 14:47:35;;;;;;;2.08;0.77;;;;;;;8.24;91.18;100029.03;4843518;29;20034;-85
2021/11/02 14:50:02;;;;;;;2.28;0.80;;;;;;;8.25;91.37;100029.88;4831670;29;20040;-84
2021/11/02 14:52:27;;;;;;;1.00;0.85;;;;;;;8.25;91.29;100032.50;4856495;29;20371;-84
2021/11/02 14:54:53;;;;;;;4.80;0.90;;;;;;;8.24;91.40;100039.47;4838282;29;20094;-84
2021/11/02 14:57:18;;;;;;;1.40;0.50;;;;;;;8.25;91.46;100040.31;4846726;29;20041;-84
2021/11/02 15:00:01;;;;;;;1.58;0.77;;;;;;;8.24;91.24;100043.81;4860312;29;20056;-84
2021/11/02 15:02:37;;;;;;;4.22;1.00;;;;;;;8.24;91.57;100036.00;4826340;29;20064;-85
2021/11/02 15:05:05;;;;;;;3.50;0.82;;;;;;;8.25;91.90;100043.75;4846884;29;20336;-85
2021/11/02 15:07:34;;;;;;;1.15;1.00;;;;;;;8.26;91.66;100049.84;4832216;29;20053;-85
2021/11/02 15:10:05;;;;;;;0.82;0.70;;;;;;;8.26;92.05;100048.06;4845924;29;20076;-84
2021/11/02 15:12:31;;;;;;;1.77;0.95;;;;;;;8.25;91.84;100048.97;4864427;29;20053;-84
2021/11/02 15:14:56;;;;;;;1.65;0.85;;;;;;;8.24;91.52;100055.13;4846333;29;20381;-84
2021/11/02 15:17:21;;;;;;;2.78;0.80;;;;;;;8.24;91.84;100052.53;4828672;29;20048;-85
2021/11/02 15:19:48;;;;;;;4.07;0.90;;;;;;;8.25;91.96;100048.16;4850014;29;20057;-84
2021/11/02 15:22:16;;;;;;;2.13;1.10;;;;;;;8.27;92.24;100061.97;4811646;29;20142;-85
2021/11/02 15:25:02;;;;;;;3.50;1.00;;;;;;;8.25;92.12;100051.59;4843447;29;20021;-85
2021/11/02 15:27:32;;;;;;;1.67;0.98;;;;;;;8.26;92.04;100049.84;4859232;29;20286;-85
2021/11/02 15:30:00;;;;;;;2.55;1.20;;;;;;;8.26;92.04;100055.91;4843503;29;20037;-85
2021/11/02 15:32:27;;;;;;;1.75;1.13;;;;;;;8.27;92.11;100047.16;4829605;29;20037;-84
2021/11/02 15:34:57;;;;;;;1.75;1.20;;;;;;;8.27;92.08;100043.69;4830679;29;20185;-85
2021/11/02 15:37:26;;;;;;;2.67;1.02;;;;;;;8.28;91.96;100050.63;4828932;29;20036;-85
2021/11/02 15:40:00;;;;;;;1.25;1.15;;;;;;;8.27;92.00;100047.16;4816205;29;20218;-85
2021/11/02 15:42:39;;;;;;;1.67;1.20;;;;;;;8.27;92.06;100052.38;4831942;29;20053;-84
2021/11/02 15:45:10;;;;;;;3.30;1.02;;;;;;;8.26;92.18;100052.47;4824399;29;20041;-84
2021/11/02 15:47:39;;;;;;;2.03;1.40;;;;;;;8.25;91.71;100054.19;4857150;29;20367;-85
2021/11/02 15:50:08;;;;;;;2.63;1.30;;;;;;;8.25;91.68;100062.03;4831070;29;20038;-85
2021/11/02 15:52:34;;;;;;;5.45;1.45;;;;;;;8.24;91.84;100062.09;4840964;29;20112;-84
2021/11/02 15:55:21;;;;;;;2.97;1.30;;;;;;;8.24;91.74;100062.97;4826117;29;20391;-85
2021/11/02 15:57:58;;;;;;;2.63;1.50;;;;;;;8.23;91.79;100066.47;4859059;29;20041;-85
2021/11/02 16:00:45;;;;;;;2.83;1.67;;;;;;;8.21;91.39;100057.88;4841808;29;20045;-84
2021/11/02 16:03:11;;;;;;;6.05;1.95;;;;;;;8.18;90.99;100060.59;4842045;29;20046;-85
2021/11/02 16:05:38;;;;;;;1.95;1.77;;;;;;;8.17;90.88;100063.28;4838560;29;20233;-84
2021/11/02 16:08:12;;;;;;;2.00;1.80;;;;;;;8.14;91.22;100059.03;4839445;29;20363;-84
2021/11/02 16:10:37;;;;;;;4.93;1.70;;;;;;;8.13;91.38;100065.19;4843694;29;20037;-84
2021/11/02 16:13:07;;;;;;;6.22;1.70;;;;;;;8.09;91.29;100066.22;4827019;29;20270;-84
2021/11/02 16:15:34;;;;;;;2.88;1.60;;;;;;;8.04;91.21;100057.72;4829471;29;20378;-84
2021/11/02 16:18:05;;;;;;;2.60;1.70;;;;;;;8.00;91.09;100058.78;4846474;29;20344;-84
2021/11/02 16:20:37;;;;;;;3.25;2.00;;;;;;;7.96;91.19;100057.22;4828038;29;20041;-84
2021/11/02 16:23:10;;;;;;;2.58;1.83;;;;;;;7.91;91.14;100067.00;4845573;29;20068;-85
2021/11/02 16:25:42;;;;;;;1.70;1.60;;;;;;;7.85;91.17;100058.50;4844783;29;20021;-84
2021/11/02 16:28:19;;;;;;;2.05;1.65;;;;;;;7.81;91.23;100061.31;4862300;29;20053;-84
2021/11/02 16:31:00;;;;;;;2.13;1.90;;;;;;;7.77;91.56;100068.41;4831675;29;20041;-84
2021/11/02 16:33:39;;;;;;;2.13;1.90;;;;;;;7.74;91.78;100063.31;4828877;29;20061;-84
2021/11/02 16:36:21;;;;;;;2.88;2.20;;;;;;;7.70;91.82;100066.97;4843668;29;20261;-84
2021/11/02 16:38:46;;;;;;;6.05;2.33;;;;;;;7.65;92.08;100066.31;4840864;29;20057;-84
2021/11/02 16:41:27;;;;;;;5.55;2.40;;;;;;;7.61;91.96;100072.56;4860583;29;20060;-84
2021/11/02 16:44:02;;;;;;;3.55;2.30;;;;;;;7.57;92.18;100082.25;4862395;29;20061;-84
2021/11/02 16:46:38;;;;;;;2.53;2.22;;;;;;;7.57;92.38;100084.88;4830759;29;20044;-84
2021/11/02 16:49:08;;;;;;;3.90;2.42;;;;;;;7.58;92.53;100081.34;4851241;29;20316;-84
2021/11/02 16:51:55;;;;;;;2.53;2.33;;;;;;;7.59;93.08;100080.44;4846056;29;20069;-84
2021/11/02 16:54:22;;;;;;;6.93;3.75;;;;;;;7.61;93.25;100088.19;4860923;29;20057;-84
2021/11/02 16:57:18;;;;;;;4.97;3.70;;;;;;;7.63;93.23;100087.22;4840624;29;20043;-83